createdAt,value
2022-10-29T00:00:09.225Z,98981.01
2022-10-29T00:01:30.970Z,98980.75
2022-10-29T00:02:32.688Z,98974.89
2022-10-29T00:03:36.291Z,98977.33
2022-10-29T00:04:37.951Z,98977.73
2022-10-29T00:05:39.792Z,98978.48
2022-10-29T00:06:41.437Z,98978.42
2022-10-29T00:07:43.185Z,98982.29
2022-10-29T00:08:47.503Z,98986.95
2022-10-29T00:09:49.115Z,98984.14
2022-10-29T00:10:50.792Z,98987.22
2022-10-29T00:11:52.397Z,98987.88
2022-10-29T00:12:54.016Z,98986.73
2022-10-29T00:13:59.529Z,98990.27
2022-10-29T00:15:02.093Z,98987.45
2022-10-29T00:16:17.192Z,98987.25
2022-10-29T00:17:18.847Z,98990.72
2022-10-29T00:18:20.472Z,98988.50
2022-10-29T00:19:22.065Z,98986.23
2022-10-29T00:20:23.935Z,98981.95
2022-10-29T00:21:26.737Z,98982.39
2022-10-29T00:22:28.460Z,98978.82
2022-10-29T00:23:30.283Z,98980.23
2022-10-29T00:24:31.864Z,98980.19
2022-10-29T00:25:33.525Z,98981.80
2022-10-29T00:26:35.140Z,98974.88
2022-10-29T00:27:36.817Z,98976.93
2022-10-29T00:28:38.803Z,98975.36
2022-10-29T00:29:40.926Z,98980.30
2022-10-29T00:30:42.544Z,98978.31
2022-10-29T00:31:44.216Z,98979.55
2022-10-29T00:32:45.870Z,98981.29
2022-10-29T00:33:47.640Z,98982.17
2022-10-29T00:34:49.465Z,98983.09
2022-10-29T00:36:06.953Z,98981.89
2022-10-29T00:37:08.595Z,98976.88
2022-10-29T00:38:10.380Z,98981.36
2022-10-29T00:39:15.744Z,98974.00
2022-10-29T00:40:17.554Z,98981.15
2022-10-29T00:41:26.529Z,98975.73
2022-10-29T00:42:28.332Z,98983.48
2022-10-29T00:43:30.509Z,98977.04
2022-10-29T00:44:38.917Z,98975.52
2022-10-29T00:45:51.840Z,98976.23
2022-10-29T00:47:09.778Z,98980.57
2022-10-29T00:48:11.680Z,98984.27
2022-10-29T00:49:16.785Z,98984.25
2022-10-29T00:50:22.568Z,98984.80
2022-10-29T00:51:27.327Z,98988.61
2022-10-29T00:52:35.713Z,98989.98
2022-10-29T00:53:46.340Z,98989.87
2022-10-29T00:54:52.868Z,98989.83
2022-10-29T00:55:54.685Z,98990.58
2022-10-29T00:57:03.957Z,98988.80
2022-10-29T00:58:05.629Z,98991.66
2022-10-29T00:59:09.463Z,98988.91
2022-10-29T01:00:11.991Z,98983.01
2022-10-29T01:01:14.138Z,98987.67
2022-10-29T01:02:16.584Z,98982.85
2022-10-29T01:03:18.299Z,98977.42
2022-10-29T01:04:21.109Z,98981.86
2022-10-29T01:05:26.247Z,98973.70
2022-10-29T01:06:30.914Z,98971.10
2022-10-29T01:07:33.001Z,98973.75
2022-10-29T01:08:34.866Z,98972.02
2022-10-29T01:09:36.630Z,98972.89
2022-10-29T01:10:53.711Z,98969.54
2022-10-29T01:12:32.623Z,98969.38
2022-10-29T01:14:10.893Z,98964.95
2022-10-29T01:15:46.007Z,98961.37
2022-10-29T01:16:59.476Z,98964.85
2022-10-29T01:18:37.647Z,98961.16
2022-10-29T01:20:11.817Z,98962.23
2022-10-29T01:21:39.727Z,98963.75
2022-10-29T01:23:19.144Z,98963.17
2022-10-29T01:24:37.181Z,98958.93
2022-10-29T01:25:58.555Z,98961.81
2022-10-29T01:27:21.751Z,98963.60
2022-10-29T01:28:41.703Z,98969.71
2022-10-29T01:30:09.326Z,98968.52
2022-10-29T01:31:42.259Z,98966.04
2022-10-29T01:33:08.788Z,98966.03
2022-10-29T01:34:42.648Z,98959.31
2022-10-29T01:36:16.196Z,98963.70
2022-10-29T01:37:30.473Z,98963.65
2022-10-29T01:39:01.441Z,98960.40
2022-10-29T01:40:18.180Z,98960.73
2022-10-29T01:41:47.212Z,98959.32
2022-10-29T01:42:59.012Z,98961.05
2022-10-29T01:44:31.375Z,98957.91
2022-10-29T01:45:48.252Z,98956.29
2022-10-29T01:46:57.458Z,98954.34
2022-10-29T01:48:13.025Z,98951.41
2022-10-29T01:49:32.261Z,98949.95
2022-10-29T01:50:39.344Z,98948.92
2022-10-29T01:51:44.239Z,98945.89
2022-10-29T01:52:48.585Z,98944.26
2022-10-29T01:53:52.665Z,98948.43
2022-10-29T01:54:54.679Z,98947.52
2022-10-29T01:55:56.649Z,98945.08
2022-10-29T01:57:00.504Z,98943.77
2022-10-29T01:58:05.347Z,98941.88
2022-10-29T01:59:22.939Z,98943.55
2022-10-29T02:00:49.216Z,98942.36
2022-10-29T02:02:06.416Z,98940.15
2022-10-29T02:03:29.584Z,98941.30
2022-10-29T02:04:47.772Z,98936.63
2022-10-29T02:06:04.494Z,98936.09
2022-10-29T02:07:36.663Z,98933.33
2022-10-29T02:08:55.806Z,98934.20
2022-10-29T02:10:08.961Z,98937.06
2022-10-29T02:11:51.994Z,98934.56
2022-10-29T02:12:57.157Z,98934.36
2022-10-29T02:14:19.785Z,98932.89
2022-10-29T02:15:26.507Z,98935.48
2022-10-29T02:16:30.428Z,98932.52
2022-10-29T02:17:34.493Z,98929.09
2022-10-29T02:18:48.416Z,98925.85
2022-10-29T02:19:50.096Z,98916.98
2022-10-29T02:20:51.825Z,98921.21
2022-10-29T02:21:53.448Z,98920.12
2022-10-29T02:22:55.577Z,98921.25
2022-10-29T02:23:57.178Z,98918.55
2022-10-29T02:24:59.005Z,98920.17
2022-10-29T02:26:00.679Z,98920.77
2022-10-29T02:27:02.349Z,98922.25
2022-10-29T02:28:05.332Z,98927.82
2022-10-29T02:29:07.191Z,98923.71
2022-10-29T02:30:09.200Z,98922.02
2022-10-29T02:31:11.184Z,98922.08
2022-10-29T02:32:12.851Z,98913.75
2022-10-29T02:33:14.448Z,98909.04
2022-10-29T02:34:16.083Z,98912.12
2022-10-29T02:35:17.669Z,98905.95
2022-10-29T02:36:19.381Z,98901.83
2022-10-29T02:37:21.032Z,98903.84
2022-10-29T02:38:22.756Z,98905.79
2022-10-29T02:39:24.353Z,98902.27
2022-10-29T02:40:25.955Z,98902.21
2022-10-29T02:41:27.570Z,98898.42
2022-10-29T02:42:29.216Z,98901.17
2022-10-29T02:43:30.815Z,98901.19
2022-10-29T02:44:33.085Z,98904.97
2022-10-29T02:45:34.738Z,98908.53
2022-10-29T02:46:39.488Z,98909.52
2022-10-29T02:47:41.165Z,98906.38
2022-10-29T02:48:42.987Z,98899.34
2022-10-29T02:49:44.587Z,98900.15
2022-10-29T02:50:46.200Z,98901.06
2022-10-29T02:51:47.821Z,98901.82
2022-10-29T02:52:49.450Z,98902.30
2022-10-29T02:53:51.036Z,98898.45
2022-10-29T02:54:52.789Z,98903.44
2022-10-29T02:55:54.394Z,98898.56
2022-10-29T02:56:56.724Z,98895.00
2022-10-29T02:57:58.487Z,98893.15
2022-10-29T02:59:00.395Z,98889.64
2022-10-29T03:00:02.022Z,98889.64
2022-10-29T03:01:04.790Z,98894.17
2022-10-29T03:02:06.589Z,98893.31
2022-10-29T03:03:08.313Z,98896.62
2022-10-29T03:04:11.046Z,98900.52
2022-10-29T03:05:12.661Z,98899.38
2022-10-29T03:06:19.396Z,98902.63
2022-10-29T03:07:20.988Z,98904.63
2022-10-29T03:08:22.868Z,98904.41
2022-10-29T03:09:24.462Z,98903.02
2022-10-29T03:10:26.068Z,98903.71
2022-10-29T03:11:27.763Z,98906.05
2022-10-29T03:12:30.184Z,98904.73
2022-10-29T03:13:31.822Z,98902.67
2022-10-29T03:14:33.494Z,98903.65
2022-10-29T03:15:35.417Z,98907.33
2022-10-29T03:16:37.045Z,98903.70
2022-10-29T03:17:39.024Z,98899.48
2022-10-29T03:18:40.658Z,98907.77
2022-10-29T03:19:42.229Z,98909.81
2022-10-29T03:20:45.459Z,98908.14
2022-10-29T03:21:47.180Z,98902.23
2022-10-29T03:22:48.800Z,98909.48
2022-10-29T03:23:50.431Z,98906.73
2022-10-29T03:24:52.058Z,98901.52
2022-10-29T03:25:56.249Z,98902.95
2022-10-29T03:26:58.114Z,98900.23
2022-10-29T03:27:59.770Z,98901.05
2022-10-29T03:29:01.460Z,98901.04
2022-10-29T03:30:03.195Z,98902.83
2022-10-29T03:31:05.062Z,98906.55
2022-10-29T03:32:06.861Z,98902.76
2022-10-29T03:33:08.500Z,98903.86
2022-10-29T03:34:10.172Z,98905.52
2022-10-29T03:35:14.449Z,98901.36
2022-10-29T03:36:16.170Z,98901.52
2022-10-29T03:37:18.052Z,98898.38
2022-10-29T03:38:19.644Z,98894.70
2022-10-29T03:39:21.510Z,98889.56
2022-10-29T03:40:23.144Z,98887.77
2022-10-29T03:41:24.748Z,98887.29
2022-10-29T03:42:26.615Z,98887.70
2022-10-29T03:43:28.230Z,98887.39
2022-10-29T03:44:29.997Z,98888.58
2022-10-29T03:45:31.613Z,98889.66
2022-10-29T03:46:34.179Z,98875.85
2022-10-29T03:47:35.861Z,98877.36
2022-10-29T03:48:37.883Z,98877.25
2022-10-29T03:49:39.517Z,98875.02
2022-10-29T03:50:41.101Z,98874.87
2022-10-29T03:51:42.689Z,98873.40
2022-10-29T03:52:44.360Z,98871.08
2022-10-29T03:53:46.009Z,98870.04
2022-10-29T03:54:47.884Z,98865.92
2022-10-29T03:55:51.689Z,98867.06
2022-10-29T03:56:53.276Z,98866.79
2022-10-29T03:57:56.483Z,98863.86
2022-10-29T03:58:58.269Z,98862.94
2022-10-29T04:00:00.810Z,98862.45
2022-10-29T04:01:07.715Z,98862.86
2022-10-29T04:02:10.205Z,98862.77
2022-10-29T04:03:11.971Z,98864.98
2022-10-29T04:04:13.637Z,98869.05
2022-10-29T04:05:15.228Z,98868.99
2022-10-29T04:06:18.224Z,98877.05
2022-10-29T04:07:19.853Z,98869.42
2022-10-29T04:08:21.817Z,98874.89
2022-10-29T04:09:23.535Z,98875.30
2022-10-29T04:10:26.698Z,98867.39
2022-10-29T04:11:28.347Z,98876.08
2022-10-29T04:12:29.941Z,98872.98
2022-10-29T04:13:31.765Z,98871.62
2022-10-29T04:14:33.489Z,98870.39
2022-10-29T04:15:35.172Z,98869.09
2022-10-29T04:16:36.993Z,98867.25
2022-10-29T04:17:38.717Z,98862.52
2022-10-29T04:18:40.379Z,98859.16
2022-10-29T04:19:42.049Z,98852.59
2022-10-29T04:22:10.260Z,98853.09
2022-10-29T04:27:08.299Z,98869.30
2022-10-29T04:28:54.588Z,98871.06
2022-10-29T04:29:56.204Z,98873.18
2022-10-29T04:30:57.803Z,98869.34
2022-10-29T04:31:59.420Z,98865.77
2022-10-29T04:33:01.033Z,98862.10
2022-10-29T04:34:03.714Z,98864.27
2022-10-29T04:35:06.192Z,98860.36
2022-10-29T04:36:08.375Z,98867.23
2022-10-29T04:37:09.960Z,98867.19
2022-10-29T04:38:12.413Z,98867.02
2022-10-29T04:39:16.153Z,98871.20
2022-10-29T04:40:18.760Z,98873.69
2022-10-29T04:41:20.372Z,98872.12
2022-10-29T04:42:22.078Z,98866.64
2022-10-29T04:43:23.775Z,98873.30
2022-10-29T04:44:25.415Z,98870.81
2022-10-29T04:45:27.022Z,98871.09
2022-10-29T04:46:28.680Z,98872.93
2022-10-29T04:47:30.301Z,98869.31
2022-10-29T04:48:32.081Z,98871.81
2022-10-29T04:49:33.796Z,98876.48
2022-10-29T04:50:38.729Z,98880.00
2022-10-29T04:51:40.331Z,98886.34
2022-10-29T04:52:41.965Z,98888.50
2022-10-29T04:53:43.651Z,98888.23
2022-10-29T04:54:45.390Z,98884.66
2022-10-29T04:55:47.225Z,98881.30
2022-10-29T04:56:48.824Z,98879.19
2022-10-29T04:57:50.970Z,98881.46
2022-10-29T04:58:53.052Z,98880.00
2022-10-29T04:59:54.670Z,98883.09
2022-10-29T05:01:05.144Z,98880.00
2022-10-29T05:02:07.071Z,98880.81
2022-10-29T05:03:09.590Z,98877.95
2022-10-29T05:04:11.292Z,98884.77
2022-10-29T05:05:12.953Z,98884.66
2022-10-29T05:06:14.577Z,98886.17
2022-10-29T05:07:16.172Z,98895.96
2022-10-29T05:08:18.027Z,98892.70
2022-10-29T05:09:19.969Z,98903.31
2022-10-29T05:10:21.555Z,98902.17
2022-10-29T05:11:23.240Z,98910.79
2022-10-29T05:12:24.839Z,98908.77
2022-10-29T05:13:26.422Z,98913.81
2022-10-29T05:14:28.126Z,98916.15
2022-10-29T05:15:30.646Z,98912.14
2022-10-29T05:16:32.836Z,98909.55
2022-10-29T05:17:38.689Z,98909.91
2022-10-29T05:18:40.337Z,98908.45
2022-10-29T05:19:41.984Z,98906.34
2022-10-29T05:20:43.750Z,98903.40
2022-10-29T05:21:45.324Z,98901.52
2022-10-29T05:22:47.056Z,98899.01
2022-10-29T05:23:48.731Z,98905.40
2022-10-29T05:24:50.313Z,98906.31
2022-10-29T05:25:52.410Z,98912.27
2022-10-29T05:26:54.422Z,98911.41
2022-10-29T05:28:01.514Z,98911.82
2022-10-29T05:29:03.207Z,98908.14
2022-10-29T05:30:05.885Z,98909.72
2022-10-29T05:31:07.580Z,98907.71
2022-10-29T05:32:09.219Z,98910.04
2022-10-29T05:33:14.573Z,98909.05
2022-10-29T05:34:16.219Z,98907.05
2022-10-29T05:35:17.821Z,98911.45
2022-10-29T05:36:19.455Z,98907.11
2022-10-29T05:37:21.068Z,98901.74
2022-10-29T05:38:22.829Z,98905.11
2022-10-29T05:39:24.404Z,98906.03
2022-10-29T05:40:26.673Z,98905.55
2022-10-29T05:41:28.557Z,98905.48
2022-10-29T05:42:30.290Z,98903.70
2022-10-29T05:43:32.040Z,98905.33
2022-10-29T05:44:33.641Z,98900.61
2022-10-29T05:45:35.234Z,98902.39
2022-10-29T05:46:36.960Z,98900.49
2022-10-29T05:47:38.572Z,98897.45
2022-10-29T05:48:40.148Z,98896.54
2022-10-29T05:49:41.718Z,98895.39
2022-10-29T05:50:43.732Z,98896.17
2022-10-29T05:51:45.385Z,98896.12
2022-10-29T05:52:58.417Z,98899.15
2022-10-29T05:54:00.275Z,98903.71
2022-10-29T05:55:02.046Z,98900.90
2022-10-29T05:56:03.837Z,98902.97
2022-10-29T05:57:05.444Z,98905.77
2022-10-29T05:58:11.528Z,98909.14
2022-10-29T05:59:13.125Z,98910.61
2022-10-29T06:00:14.974Z,98912.95
2022-10-29T06:01:19.777Z,98916.39
2022-10-29T06:02:21.814Z,98922.08
2022-10-29T06:03:23.486Z,98920.89
2022-10-29T06:04:25.109Z,98921.42
2022-10-29T06:05:27.115Z,98915.04
2022-10-29T06:06:28.734Z,98914.17
2022-10-29T06:07:30.408Z,98914.98
2022-10-29T06:08:32.181Z,98923.10
2022-10-29T06:09:33.845Z,98924.13
2022-10-29T06:10:36.315Z,98931.22
2022-10-29T06:11:37.949Z,98930.36
2022-10-29T06:12:39.529Z,98929.59
2022-10-29T06:13:41.146Z,98926.73
2022-10-29T06:14:42.735Z,98931.93
2022-10-29T06:15:45.327Z,98925.44
2022-10-29T06:16:46.965Z,98929.06
2022-10-29T06:17:49.219Z,98928.52
2022-10-29T06:18:50.804Z,98924.52
2022-10-29T06:19:52.438Z,98928.25
2022-10-29T06:20:54.595Z,98930.52
2022-10-29T06:21:59.428Z,98927.70
2022-10-29T06:23:02.285Z,98930.84
2022-10-29T06:24:04.265Z,98937.39
2022-10-29T06:25:06.429Z,98940.05
2022-10-29T06:26:08.083Z,98935.09
2022-10-29T06:27:09.683Z,98937.09
2022-10-29T06:28:15.617Z,98940.73
2022-10-29T06:29:17.342Z,98938.72
2022-10-29T06:30:18.933Z,98944.19
2022-10-29T06:31:20.678Z,98946.14
2022-10-29T06:32:22.933Z,98947.20
2022-10-29T06:33:24.717Z,98950.02
2022-10-29T06:34:26.436Z,98950.30
2022-10-29T06:35:29.043Z,98949.70
2022-10-29T06:36:30.710Z,98942.35
2022-10-29T06:37:33.283Z,98945.23
2022-10-29T06:38:34.939Z,98950.09
2022-10-29T06:39:36.629Z,98948.35
2022-10-29T06:40:39.036Z,98949.81
2022-10-29T06:41:40.766Z,98943.96
2022-10-29T06:42:43.611Z,98948.95
2022-10-29T06:43:45.229Z,98949.82
2022-10-29T06:44:46.841Z,98949.92
2022-10-29T06:45:50.063Z,98952.84
2022-10-29T06:46:51.640Z,98946.81
2022-10-29T06:47:53.573Z,98950.61
2022-10-29T06:48:55.570Z,98948.16
2022-10-29T06:49:57.182Z,98950.80
2022-10-29T06:51:00.239Z,98943.53
2022-10-29T06:52:01.848Z,98953.45
2022-10-29T06:53:10.137Z,98951.33
2022-10-29T06:54:11.894Z,98954.30
2022-10-29T06:55:13.487Z,98956.34
2022-10-29T06:56:15.095Z,98955.30
2022-10-29T06:57:16.745Z,98951.32
2022-10-29T06:58:20.925Z,98954.19
2022-10-29T06:59:24.530Z,98950.91
2022-10-29T07:00:26.905Z,98952.89
2022-10-29T07:01:31.753Z,98954.06
2022-10-29T07:02:33.568Z,98955.67
2022-10-29T07:03:35.184Z,98959.70
2022-10-29T07:04:36.785Z,98961.85
2022-10-29T07:05:38.440Z,98962.91
2022-10-29T07:06:40.022Z,98960.94
2022-10-29T07:07:41.618Z,98956.48
2022-10-29T07:08:43.276Z,98962.23
2022-10-29T07:09:44.978Z,98967.96
2022-10-29T07:10:50.747Z,98969.88
2022-10-29T07:11:52.355Z,98967.43
2022-10-29T07:12:54.044Z,98969.23
2022-10-29T07:13:55.825Z,98969.00
2022-10-29T07:14:57.652Z,98969.88
2022-10-29T07:15:59.243Z,98965.59
2022-10-29T07:17:00.865Z,98963.48
2022-10-29T07:18:07.620Z,98963.24
2022-10-29T07:19:09.674Z,98958.61
2022-10-29T07:20:11.588Z,98959.45
2022-10-29T07:21:13.994Z,98958.52
2022-10-29T07:22:15.596Z,98955.91
2022-10-29T07:23:17.213Z,98956.36
2022-10-29T07:24:18.817Z,98954.02
2022-10-29T07:25:20.604Z,98953.98
2022-10-29T07:26:22.193Z,98958.70
2022-10-29T07:27:23.909Z,98958.05
2022-10-29T07:28:25.666Z,98959.92
2022-10-29T07:29:27.329Z,98961.48
2022-10-29T07:30:28.977Z,98965.64
2022-10-29T07:31:31.709Z,98962.84
2022-10-29T07:32:33.305Z,98958.86
2022-10-29T07:33:35.089Z,98956.27
2022-10-29T07:34:36.693Z,98963.35
2022-10-29T07:35:39.347Z,98959.58
2022-10-29T07:36:41.206Z,98961.72
2022-10-29T07:37:42.871Z,98960.83
2022-10-29T07:38:44.487Z,98959.93
2022-10-29T07:39:46.092Z,98962.35
2022-10-29T07:40:49.950Z,98965.03
2022-10-29T07:41:54.038Z,98963.62
2022-10-29T07:42:58.722Z,98968.41
2022-10-29T07:44:00.507Z,98962.83
2022-10-29T07:45:02.111Z,98963.73
2022-10-29T07:46:03.858Z,98961.25
2022-10-29T07:47:05.741Z,98960.87
2022-10-29T07:48:07.942Z,98954.26
2022-10-29T07:49:09.638Z,98952.30
2022-10-29T07:50:11.522Z,98954.11
2022-10-29T07:51:13.211Z,98953.09
2022-10-29T07:52:14.823Z,98953.66
2022-10-29T07:53:16.619Z,98959.55
2022-10-29T07:54:18.205Z,98960.62
2022-10-29T07:55:19.940Z,98961.95
2022-10-29T07:56:21.661Z,98962.30
2022-10-29T07:57:23.326Z,98963.04
2022-10-29T07:58:26.089Z,98962.95
2022-10-29T07:59:27.708Z,98968.42
2022-10-29T08:00:37.848Z,98967.73
2022-10-29T08:01:40.111Z,98965.69
2022-10-29T08:02:42.213Z,98967.85
2022-10-29T08:03:43.954Z,98965.06
2022-10-29T08:04:45.562Z,98966.39
2022-10-29T08:05:55.183Z,98963.23
2022-10-29T08:06:58.245Z,98965.28
2022-10-29T08:08:00.604Z,98961.21
2022-10-29T08:09:02.953Z,98965.39
2022-10-29T08:10:04.904Z,98965.75
2022-10-29T08:11:07.083Z,98969.59
2022-10-29T08:12:11.022Z,98970.90
2022-10-29T08:13:13.078Z,98963.62
2022-10-29T08:14:16.683Z,98967.13
2022-10-29T08:15:20.844Z,98961.50
2022-10-29T08:16:22.452Z,98968.61
2022-10-29T08:17:24.093Z,98968.79
2022-10-29T08:18:25.936Z,98965.83
2022-10-29T08:19:29.806Z,98962.31
2022-10-29T08:20:31.512Z,98960.61
2022-10-29T08:21:33.300Z,98968.72
2022-10-29T08:22:35.487Z,98968.98
2022-10-29T08:23:37.081Z,98966.71
2022-10-29T08:24:38.673Z,98964.17
2022-10-29T08:25:42.633Z,98962.48
2022-10-29T08:26:44.261Z,98952.29
2022-10-29T08:27:46.207Z,98950.98
2022-10-29T08:28:47.951Z,98952.65
2022-10-29T08:29:50.112Z,98951.04
2022-10-29T08:30:51.767Z,98951.56
2022-10-29T08:31:53.359Z,98951.31
2022-10-29T08:32:55.700Z,98953.05
2022-10-29T08:33:57.528Z,98949.75
2022-10-29T08:34:59.524Z,98952.73
2022-10-29T08:36:01.140Z,98952.70
2022-10-29T08:37:02.841Z,98951.89
2022-10-29T08:38:05.507Z,98960.71
2022-10-29T08:39:07.140Z,98956.98
2022-10-29T08:40:25.118Z,98955.14
2022-10-29T08:42:02.014Z,98959.64
2022-10-29T08:43:21.927Z,98955.33
2022-10-29T08:44:32.528Z,98958.75
2022-10-29T08:45:37.085Z,98958.61
2022-10-29T08:47:01.292Z,98957.61
2022-10-29T08:48:21.859Z,98956.35
2022-10-29T08:49:34.522Z,98954.22
2022-10-29T08:50:43.280Z,98957.31
2022-10-29T08:52:11.738Z,98961.14
2022-10-29T08:53:23.659Z,98962.16
2022-10-29T08:54:34.304Z,98963.03
2022-10-29T08:55:38.213Z,98961.52
2022-10-29T08:56:47.656Z,98961.55
2022-10-29T08:57:58.282Z,98968.29
2022-10-29T08:59:14.914Z,98964.04
2022-10-29T09:00:20.710Z,98966.80
2022-10-29T09:01:24.207Z,98968.90
2022-10-29T09:02:26.404Z,98966.74
2022-10-29T09:03:29.679Z,98962.41
2022-10-29T09:04:37.017Z,98964.70
2022-10-29T09:06:05.247Z,98961.48
2022-10-29T09:07:38.771Z,98961.62
2022-10-29T09:09:01.992Z,98965.50
2022-10-29T09:10:34.908Z,98964.86
2022-10-29T09:12:03.947Z,98962.08
2022-10-29T09:14:03.141Z,98961.54
2022-10-29T09:15:20.665Z,98956.86
2022-10-29T09:16:42.980Z,98959.71
2022-10-29T09:18:18.880Z,98963.63
2022-10-29T09:19:38.207Z,98965.29
2022-10-29T09:20:56.417Z,98966.15
2022-10-29T09:22:20.141Z,98969.27
2022-10-29T09:23:31.729Z,98980.25
2022-10-29T09:24:46.866Z,98977.34
2022-10-29T09:26:04.861Z,98981.67
2022-10-29T09:27:23.835Z,98988.83
2022-10-29T09:28:25.384Z,98992.88
2022-10-29T09:29:57.992Z,98992.33
2022-10-29T09:31:30.433Z,98988.44
2022-10-29T09:32:56.867Z,98989.25
2022-10-29T09:34:05.568Z,98992.77
2022-10-29T09:35:18.268Z,98990.04
2022-10-29T09:36:24.490Z,98988.55
2022-10-29T09:37:51.809Z,98990.52
2022-10-29T09:39:02.388Z,98991.45
2022-10-29T09:40:27.505Z,98984.42
2022-10-29T09:41:34.587Z,98981.02
2022-10-29T09:42:41.822Z,98978.14
2022-10-29T09:43:53.238Z,98977.96
2022-10-29T09:45:03.039Z,98983.77
2022-10-29T09:46:13.932Z,98983.54
2022-10-29T09:47:33.768Z,98986.80
2022-10-29T09:49:12.950Z,98984.67
2022-10-29T09:50:30.613Z,98990.53
2022-10-29T09:52:03.475Z,98985.14
2022-10-29T09:53:05.200Z,98982.81
2022-10-29T09:54:07.384Z,98984.23
2022-10-29T09:55:21.431Z,98981.70
2022-10-29T09:56:23.299Z,98987.39
2022-10-29T09:57:31.536Z,98981.44
2022-10-29T09:58:41.689Z,98984.59
2022-10-29T10:00:07.206Z,98983.00
2022-10-29T10:01:14.759Z,98978.59
2022-10-29T10:02:42.347Z,98978.53
2022-10-29T10:03:48.853Z,98984.48
2022-10-29T10:04:56.877Z,98987.16
2022-10-29T10:06:09.983Z,98989.16
2022-10-29T10:07:17.639Z,98994.25
2022-10-29T10:08:19.229Z,98990.87
2022-10-29T10:09:20.838Z,98994.36
2022-10-29T10:10:24.060Z,98992.75
2022-10-29T10:11:35.447Z,98988.98
2022-10-29T10:12:36.950Z,98980.46
2022-10-29T10:13:54.096Z,98976.38
2022-10-29T10:15:05.482Z,98970.42
2022-10-29T10:16:07.518Z,98970.29
2022-10-29T10:17:09.140Z,98967.71
2022-10-29T10:18:24.488Z,98972.55
2022-10-29T10:19:28.840Z,98975.74
2022-10-29T10:20:44.359Z,98976.46
2022-10-29T10:22:02.801Z,98977.14
2022-10-29T10:23:26.232Z,98982.74
2022-10-29T10:24:34.271Z,98981.04
2022-10-29T10:25:40.613Z,98983.09
2022-10-29T10:26:43.295Z,98990.21
2022-10-29T10:27:45.090Z,98994.94
2022-10-29T10:29:09.805Z,98991.65
2022-10-29T10:30:15.950Z,98988.01
2022-10-29T10:31:17.637Z,98986.02
2022-10-29T10:32:19.240Z,98981.56
2022-10-29T10:33:27.314Z,98982.35
2022-10-29T10:34:34.798Z,98981.14
2022-10-29T10:35:38.158Z,98980.31
2022-10-29T10:36:43.963Z,98975.42
2022-10-29T10:37:45.896Z,98980.38
2022-10-29T10:38:52.107Z,98977.99
2022-10-29T10:40:07.443Z,98979.57
2022-10-29T10:41:13.047Z,98977.71
2022-10-29T10:42:23.944Z,98977.70
2022-10-29T10:43:26.554Z,98981.58
2022-10-29T10:44:29.293Z,98981.83
2022-10-29T10:45:40.068Z,98978.23
2022-10-29T10:46:44.645Z,98974.02
2022-10-29T10:47:51.238Z,98971.78
2022-10-29T10:48:59.903Z,98974.59
2022-10-29T10:50:26.811Z,98979.39
2022-10-29T10:51:34.076Z,98982.14
2022-10-29T10:52:36.010Z,98987.02
2022-10-29T10:53:41.049Z,98986.89
2022-10-29T10:54:56.407Z,98987.93
2022-10-29T10:55:58.180Z,98994.15
2022-10-29T10:57:19.497Z,98995.18
2022-10-29T10:58:38.937Z,98998.13
2022-10-29T10:59:55.600Z,98990.06
2022-10-29T11:01:16.349Z,98987.60
2022-10-29T11:02:46.460Z,98980.86
2022-10-29T11:04:20.099Z,98979.66
2022-10-29T11:05:23.303Z,98982.07
2022-10-29T11:06:35.087Z,98984.11
2022-10-29T11:07:43.000Z,98988.63
2022-10-29T11:09:06.363Z,98983.16
2022-10-29T11:10:13.824Z,98972.41
2022-10-29T11:11:21.021Z,98969.14
2022-10-29T11:12:34.737Z,98962.40
2022-10-29T11:13:41.752Z,98968.48
2022-10-29T11:15:12.621Z,98972.21
2022-10-29T11:16:31.676Z,98975.56
2022-10-29T11:17:48.891Z,98977.96
2022-10-29T11:19:01.857Z,98975.23
2022-10-29T11:20:17.193Z,98970.72
2022-10-29T11:21:32.813Z,98980.21
2022-10-29T11:23:02.265Z,98975.17
2022-10-29T11:24:06.806Z,98979.96
2022-10-29T11:25:35.481Z,98969.19
2022-10-29T11:27:00.501Z,98972.93
2022-10-29T11:28:20.911Z,98979.18
2022-10-29T11:29:41.044Z,98972.77
2022-10-29T11:30:55.760Z,98971.35
2022-10-29T11:32:12.450Z,98967.50
2022-10-29T11:33:31.521Z,98977.52
2022-10-29T11:34:48.409Z,98976.26
2022-10-29T11:36:18.817Z,98980.62
2022-10-29T11:37:48.465Z,98978.55
2022-10-29T11:39:10.583Z,98977.16
2022-10-29T11:40:18.166Z,98969.89
2022-10-29T11:41:28.389Z,98972.39
2022-10-29T11:42:30.105Z,98965.54
2022-10-29T11:43:33.734Z,98969.62
2022-10-29T11:44:39.828Z,98975.27
2022-10-29T11:45:57.464Z,98967.20
2022-10-29T11:47:01.815Z,98968.05
2022-10-29T11:48:21.541Z,98961.34
2022-10-29T11:49:23.443Z,98962.29
2022-10-29T11:50:47.713Z,98964.93
2022-10-29T11:52:08.477Z,98961.52
2022-10-29T11:53:34.838Z,98965.23
2022-10-29T11:54:51.629Z,98966.23
2022-10-29T11:56:05.101Z,98960.17
2022-10-29T11:57:22.011Z,98965.98
2022-10-29T11:58:38.095Z,98958.21
2022-10-29T12:00:05.560Z,98957.79
2022-10-29T12:01:42.453Z,98955.90
2022-10-29T12:02:59.543Z,98952.00
2022-10-29T12:04:19.646Z,98948.52
2022-10-29T12:05:30.574Z,98949.71
2022-10-29T12:06:54.832Z,98951.30
2022-10-29T12:08:07.029Z,98949.05
2022-10-29T12:09:27.312Z,98948.20
2022-10-29T12:10:28.902Z,98950.56
2022-10-29T12:12:09.728Z,98950.58
2022-10-29T12:13:26.681Z,98954.27
2022-10-29T12:14:46.902Z,98947.45
2022-10-29T12:16:25.671Z,98953.83
2022-10-29T12:17:45.829Z,98957.56
2022-10-29T12:19:00.287Z,98957.77
2022-10-29T12:20:34.404Z,98957.17
2022-10-29T12:21:56.890Z,98960.76
2022-10-29T12:23:26.471Z,98963.09
2022-10-29T12:24:53.072Z,98963.70
2022-10-29T12:26:15.451Z,98963.98
2022-10-29T12:27:35.814Z,98965.05
2022-10-29T12:29:00.971Z,98969.95
2022-10-29T12:30:09.181Z,98972.14
2022-10-29T12:31:31.703Z,98967.55
2022-10-29T12:33:03.384Z,98963.30
2022-10-29T12:34:28.051Z,98966.92
2022-10-29T12:35:35.191Z,98969.93
2022-10-29T12:36:50.889Z,98968.12
2022-10-29T12:38:08.565Z,98963.31
2022-10-29T12:39:27.616Z,98974.23
2022-10-29T12:40:34.930Z,98975.56
2022-10-29T12:41:43.794Z,98971.92
2022-10-29T12:42:48.379Z,98969.61
2022-10-29T12:43:55.983Z,98971.80
2022-10-29T12:45:26.570Z,98967.77
2022-10-29T12:46:46.892Z,98960.87
2022-10-29T12:48:34.568Z,98961.91
2022-10-29T12:50:00.938Z,98957.69
2022-10-29T12:51:23.531Z,98955.88
2022-10-29T12:53:00.372Z,98955.26
2022-10-29T12:54:11.036Z,98956.52
2022-10-29T12:55:16.638Z,98950.21
2022-10-29T12:56:20.565Z,98951.86
2022-10-29T12:57:32.573Z,98959.48
2022-10-29T12:58:45.214Z,98956.50
2022-10-29T12:59:46.847Z,98957.56
2022-10-29T13:00:48.640Z,98956.05
2022-10-29T13:03:53.395Z,98960.16
2022-10-29T13:05:09.974Z,98961.48
2022-10-29T13:06:39.272Z,98959.42
2022-10-29T13:08:03.433Z,98960.48
2022-10-29T13:09:26.504Z,98961.97
2022-10-29T13:10:31.197Z,98960.88
2022-10-29T13:11:49.475Z,98957.30
2022-10-29T13:13:03.201Z,98960.79
2022-10-29T13:14:06.713Z,98961.95
2022-10-29T13:15:15.515Z,98961.92
2022-10-29T13:16:25.108Z,98962.77
2022-10-29T13:17:38.833Z,98961.33
2022-10-29T13:18:56.482Z,98962.09
2022-10-29T13:20:28.081Z,98960.08
2022-10-29T13:22:02.887Z,98963.91
2022-10-29T13:23:24.395Z,98967.83
2022-10-29T13:24:28.313Z,98960.83
2022-10-29T13:25:42.264Z,98959.61